Time;durP1;ratioP1;P1;durP2;ratioP2;P2;SDS_P1;SDS_P2;PMS_P1;PMS_P2;Temp;Humidity;BMP_temperature;BMP_pressure;BME280_temperature;BME280_humidity;BME280_pressure;Samples;Min_cycle;Max_cycle;Signal;HPM_P1;HPM_P2
2021/12/27 00:01:54;;;;;;;8.02;2.75;;;;;;;-141.50;100.00;63355.56;4895607;29;20052;-79
2021/12/27 00:04:20;;;;;;;8.38;3.08;;;;;;;-141.50;100.00;63355.56;4914014;29;20062;-78
2021/12/27 00:06:47;;;;;;;7.20;2.95;;;;;;;-141.50;100.00;63355.56;4928419;29;20084;-79
2021/12/27 00:09:13;;;;;;;10.50;3.05;;;;;;;-141.50;100.00;63355.56;4930106;29;20068;-80
2021/12/27 00:11:40;;;;;;;7.93;3.30;;;;;;;-141.50;100.00;63355.56;4922824;29;20065;-78
2021/12/27 00:14:06;;;;;;;11.52;3.63;;;;;;;-141.50;100.00;63355.56;4885566;29;20048;-78
2021/12/27 00:16:33;;;;;;;9.63;3.60;;;;;;;-141.50;100.00;63355.56;4882907;29;20079;-79
2021/12/27 00:19:00;;;;;;;9.35;3.65;;;;;;;-141.50;100.00;63355.56;4897061;29;20060;-80
2021/12/27 00:21:26;;;;;;;8.18;3.15;;;;;;;-141.50;100.00;63355.56;4882134;29;20060;-79
2021/12/27 00:23:53;;;;;;;11.90;3.42;;;;;;;-141.50;100.00;63355.56;4897517;29;20056;-80
2021/12/27 00:26:19;;;;;;;11.65;3.47;;;;;;;-141.50;100.00;63355.56;4898142;29;20112;-80
2021/12/27 00:28:46;;;;;;;11.43;3.83;;;;;;;-141.50;100.00;63355.56;4895236;29;20785;-79
2021/12/27 00:31:12;;;;;;;10.30;3.95;;;;;;;-141.50;100.00;63355.56;4882418;29;20091;-80
2021/12/27 00:33:39;;;;;;;10.30;4.20;;;;;;;-141.50;100.00;63355.56;4897913;29;20052;-80
2021/12/27 00:36:06;;;;;;;8.13;3.50;;;;;;;-141.50;100.00;63355.56;4882579;29;20108;-80
2021/12/27 00:38:32;;;;;;;10.43;3.60;;;;;;;-141.50;100.00;63355.56;4897848;29;20116;-80
2021/12/27 00:40:59;;;;;;;13.27;3.92;;;;;;;-141.50;100.00;63355.56;4897947;29;20063;-80
2021/12/27 00:43:25;;;;;;;13.27;3.83;;;;;;;-141.50;100.00;63355.56;4896056;29;20116;-80
2021/12/27 00:45:52;;;;;;;13.80;4.45;;;;;;;-141.50;100.00;63355.56;4881266;29;20517;-79
2021/12/27 00:48:18;;;;;;;11.93;3.85;;;;;;;-141.50;100.00;63355.56;4879611;29;20041;-79
2021/12/27 00:50:45;;;;;;;13.80;4.25;;;;;;;-141.50;100.00;63355.56;4897549;29;20124;-79
2021/12/27 00:53:12;;;;;;;11.30;4.18;;;;;;;-141.50;100.00;63355.56;4897307;29;20073;-79
2021/12/27 00:55:39;;;;;;;11.88;3.90;;;;;;;-141.50;100.00;63355.56;4898495;29;20049;-79
2021/12/27 00:58:05;;;;;;;11.43;4.07;;;;;;;-141.50;100.00;63355.56;4896112;29;20076;-79
2021/12/27 01:00:32;;;;;;;9.93;3.58;;;;;;;-141.50;100.00;63355.56;4878527;29;20049;-80
2021/12/27 01:02:59;;;;;;;10.13;4.03;;;;;;;-141.50;100.00;63355.56;4880752;29;20621;-79
2021/12/27 01:05:26;;;;;;;12.55;3.97;;;;;;;-141.50;100.00;63355.56;4899461;29;20189;-80
2021/12/27 01:07:53;;;;;;;11.02;3.90;;;;;;;-141.50;100.00;63355.56;4903457;29;20060;-81
2021/12/27 01:14:00;;;;;;;9.45;4.07;;;;;;;-141.50;100.00;63355.56;4902500;29;20056;-78
2021/12/27 01:18:35;;;;;;;10.52;4.32;;;;;;;-141.50;100.00;63355.56;4903317;29;20057;-79
2021/12/27 01:21:02;;;;;;;10.20;4.28;;;;;;;-141.50;100.00;63355.56;4884405;29;20493;-78
2021/12/27 01:23:28;;;;;;;14.98;4.22;;;;;;;-141.50;100.00;63355.56;4899715;29;20115;-79
2021/12/27 01:25:55;;;;;;;12.48;4.82;;;;;;;-141.50;100.00;63355.56;4899421;29;20055;-78
2021/12/27 01:28:22;;;;;;;13.30;4.47;;;;;;;-141.50;100.00;63355.56;4898975;29;20461;-78
2021/12/27 01:30:49;;;;;;;11.73;4.63;;;;;;;-141.50;100.00;63355.56;4887111;29;20553;-79
2021/12/27 01:33:18;;;;;;;13.45;4.70;;;;;;;-141.50;100.00;63355.56;4900563;29;20151;-80
2021/12/27 01:35:45;;;;;;;13.88;4.68;;;;;;;-141.50;100.00;63355.56;4886645;29;20059;-79
2021/12/27 01:38:13;;;;;;;10.98;4.85;;;;;;;-141.50;100.00;63355.56;4899229;29;20067;-77
2021/12/27 01:40:43;;;;;;;15.00;4.80;;;;;;;-141.50;100.00;63355.56;4898251;29;20104;-79
2021/12/27 01:43:16;;;;;;;12.57;4.68;;;;;;;-141.50;100.00;63355.56;4879440;29;20095;-77
2021/12/27 01:45:45;;;;;;;14.35;4.82;;;;;;;-141.50;100.00;63355.56;4880328;29;20049;-78
2021/12/27 01:48:13;;;;;;;17.75;5.07;;;;;;;-141.50;100.00;63355.56;4897629;29;20147;-78
2021/12/27 01:50:45;;;;;;;11.68;4.60;;;;;;;-141.50;100.00;63355.56;4898322;29;20111;-79
2021/12/27 01:53:13;;;;;;;12.20;4.40;;;;;;;-141.50;100.00;63355.56;4897934;29;20603;-78
2021/12/27 01:55:40;;;;;;;13.85;5.22;;;;;;;-141.50;100.00;63355.56;4899032;29;20072;-79
2021/12/27 01:58:07;;;;;;;10.65;4.50;;;;;;;-141.50;100.00;63355.56;4897055;29;20052;-79
2021/12/27 02:00:39;;;;;;;9.27;4.40;;;;;;;-141.50;100.00;63355.56;4880294;29;20093;-80
2021/12/27 02:03:06;;;;;;;12.45;4.95;;;;;;;-141.50;100.00;63355.56;4897099;29;20056;-78
2021/12/27 02:05:33;;;;;;;11.35;5.22;;;;;;;-141.50;100.00;63355.56;4898523;29;20052;-79
2021/12/27 02:07:59;;;;;;;13.88;4.45;;;;;;;-141.50;100.00;63355.56;4897482;29;20049;-78
2021/12/27 02:10:26;;;;;;;15.40;4.95;;;;;;;-141.50;100.00;63355.56;4895448;29;20474;-79
2021/12/27 02:12:55;;;;;;;11.02;4.25;;;;;;;-141.50;100.00;63355.56;4897946;29;20096;-78
2021/12/27 02:15:24;;;;;;;11.80;4.75;;;;;;;-141.50;100.00;63355.56;4896602;29;20111;-78
2021/12/27 02:17:51;;;;;;;11.32;4.55;;;;;;;-141.50;100.00;63355.56;4882495;29;20171;-77
2021/12/27 02:20:22;;;;;;;10.45;4.50;;;;;;;-141.50;100.00;63355.56;4882232;29;20489;-76
2021/12/27 02:22:50;;;;;;;10.80;4.43;;;;;;;-141.50;100.00;63355.56;4897092;29;20104;-79
2021/12/27 02:25:16;;;;;;;11.70;4.95;;;;;;;-141.50;100.00;63355.56;4898159;29;20445;-77
2021/12/27 02:27:45;;;;;;;13.15;4.63;;;;;;;-141.50;100.00;63355.56;4900220;29;20096;-78
2021/12/27 02:30:14;;;;;;;14.75;5.38;;;;;;;-141.50;100.00;63355.56;4902268;29;20573;-78
2021/12/27 02:32:45;;;;;;;15.52;5.32;;;;;;;-141.50;100.00;63355.56;4899745;29;20059;-78
2021/12/27 02:35:27;;;;;;;15.35;5.57;;;;;;;-141.50;100.00;63355.56;4896772;29;20064;-77
2021/12/27 02:37:55;;;;;;;15.40;5.25;;;;;;;-141.50;100.00;63355.56;4895319;29;20048;-79
2021/12/27 02:40:25;;;;;;;17.23;5.95;;;;;;;-141.50;100.00;63355.56;4878821;29;20099;-77
2021/12/27 02:43:07;;;;;;;12.80;5.53;;;;;;;-141.50;100.00;63355.56;4879390;29;20088;-78
2021/12/27 02:45:38;;;;;;;12.15;5.28;;;;;;;-141.50;100.00;63355.56;4896379;29;20104;-79
2021/12/27 02:48:05;;;;;;;13.15;5.30;;;;;;;-141.50;100.00;63355.56;4897204;29;20052;-80
2021/12/27 02:50:32;;;;;;;18.35;6.18;;;;;;;-141.50;100.00;63355.56;4897150;29;20067;-80
2021/12/27 02:52:59;;;;;;;17.15;5.63;;;;;;;-141.50;100.00;63355.56;4883105;29;20103;-78
2021/12/27 02:55:27;;;;;;;16.50;5.93;;;;;;;-141.50;100.00;63355.56;4901193;29;20053;-80
2021/12/27 02:57:53;;;;;;;15.57;6.43;;;;;;;-141.50;100.00;63355.56;4900942;29;20132;-80
2021/12/27 03:00:53;;;;;;;16.75;6.72;;;;;;;-141.50;100.00;63355.56;4886527;29;20078;-78
2021/12/27 03:03:20;;;;;;;16.63;6.53;;;;;;;-141.50;100.00;63355.56;4899530;29;20143;-79
2021/12/27 03:05:47;;;;;;;16.92;6.53;;;;;;;-141.50;100.00;63355.56;4901054;29;20434;-79
2021/12/27 03:08:15;;;;;;;18.20;7.20;;;;;;;-141.50;100.00;63355.56;4900325;29;20056;-79
2021/12/27 03:10:51;;;;;;;15.32;6.93;;;;;;;-141.50;100.00;63355.56;4901488;29;20057;-80
2021/12/27 03:13:23;;;;;;;24.25;7.18;;;;;;;-141.50;100.00;63355.56;4899649;29;20072;-79
2021/12/27 03:15:55;;;;;;;21.35;8.02;;;;;;;-141.50;100.00;63355.56;4884789;29;20083;-80
2021/12/27 03:18:22;;;;;;;20.88;7.57;;;;;;;-141.50;100.00;63355.56;4899827;29;20514;-80
2021/12/27 03:20:50;;;;;;;19.52;7.55;;;;;;;-141.50;100.00;63355.56;4900482;29;20120;-80
2021/12/27 03:23:17;;;;;;;16.80;8.00;;;;;;;-141.50;100.00;63355.56;4899469;29;20419;-80
2021/12/27 03:25:43;;;;;;;25.58;8.10;;;;;;;-141.50;100.00;63355.56;4900178;29;20045;-80
2021/12/27 03:28:10;;;;;;;18.23;7.57;;;;;;;-141.50;100.00;63355.56;4881516;29;20088;-78
2021/12/27 03:30:37;;;;;;;20.17;8.00;;;;;;;-141.50;100.00;63355.56;4898983;29;20128;-80
2021/12/27 03:33:05;;;;;;;22.13;7.88;;;;;;;-141.50;100.00;63355.56;4897445;29;20048;-79
2021/12/27 03:35:36;;;;;;;23.73;8.70;;;;;;;-141.50;100.00;63355.56;4899401;29;20433;-79
2021/12/27 03:38:06;;;;;;;19.65;8.20;;;;;;;-141.50;100.00;63355.56;4899580;29;20053;-80
2021/12/27 03:40:35;;;;;;;18.25;8.35;;;;;;;-141.50;100.00;63355.56;4899225;29;20060;-80
2021/12/27 03:43:05;;;;;;;22.00;8.95;;;;;;;-141.50;100.00;63355.56;4898442;29;20717;-80
2021/12/27 03:45:36;;;;;;;21.13;8.20;;;;;;;-141.50;100.00;63355.56;4882814;29;20080;-80
2021/12/27 03:48:05;;;;;;;20.17;8.18;;;;;;;-141.50;100.00;63355.56;4901030;29;20565;-80
2021/12/27 03:50:32;;;;;;;19.52;8.13;;;;;;;-141.50;100.00;63355.56;4899106;29;20056;-79
2021/12/27 03:52:59;;;;;;;18.88;7.95;;;;;;;-141.50;100.00;63355.56;4899884;29;20056;-78
2021/12/27 03:55:26;;;;;;;21.10;8.30;;;;;;;-141.50;100.00;63355.56;4899834;29;20053;-80
2021/12/27 03:57:56;;;;;;;23.60;8.90;;;;;;;-141.50;100.00;63355.56;4884469;29;20087;-79
2021/12/27 04:00:43;;;;;;;19.70;8.30;;;;;;;-141.50;100.00;63355.56;4895321;29;20036;-78
2021/12/27 04:03:10;;;;;;;18.38;8.43;;;;;;;-141.50;100.00;63355.56;4915426;29;20049;-80
2021/12/27 04:05:37;;;;;;;21.05;8.70;;;;;;;-141.50;100.00;63355.56;4916221;29;20053;-80
2021/12/27 04:08:09;;;;;;;22.23;8.55;;;;;;;-141.50;100.00;63355.56;4911044;29;20055;-80
2021/12/27 04:10:38;;;;;;;24.73;9.40;;;;;;;-141.50;100.00;63355.56;4896316;29;20056;-79
2021/12/27 04:13:06;;;;;;;23.80;8.60;;;;;;;-141.50;100.00;63355.56;4898127;29;20261;-78
2021/12/27 04:15:33;;;;;;;25.30;8.93;;;;;;;-141.50;100.00;63355.56;4916464;29;20040;-79
2021/12/27 04:18:00;;;;;;;26.17;9.93;;;;;;;-141.50;100.00;63355.56;4918239;29;20061;-80
2021/12/27 04:20:27;;;;;;;23.63;9.10;;;;;;;-141.50;100.00;63355.56;4916719;29;20052;-80
2021/12/27 04:22:54;;;;;;;19.88;8.02;;;;;;;-141.50;100.00;63355.56;4900419;29;20085;-80
2021/12/27 04:25:21;;;;;;;22.63;9.02;;;;;;;-141.50;100.00;63355.56;4917962;29;20040;-80
2021/12/27 04:27:49;;;;;;;26.85;9.52;;;;;;;-141.50;100.00;63355.56;4915338;29;20053;-80
2021/12/27 04:30:17;;;;;;;23.02;9.40;;;;;;;-141.50;100.00;63355.56;4914018;29;20075;-80
2021/12/27 04:32:44;;;;;;;25.15;9.70;;;;;;;-141.50;100.00;63355.56;4896894;29;20052;-80
2021/12/27 04:35:11;;;;;;;21.30;9.43;;;;;;;-141.50;100.00;63355.56;4916187;29;20048;-81
2021/12/27 04:37:38;;;;;;;24.08;9.27;;;;;;;-141.50;100.00;63355.56;4917042;29;20056;-81
2021/12/27 04:40:09;;;;;;;28.63;9.40;;;;;;;-141.50;100.00;63355.56;4910384;29;20064;-79
2021/12/27 04:42:35;;;;;;;20.63;9.18;;;;;;;-141.50;100.00;63355.56;4897877;29;20096;-80
2021/12/27 04:45:04;;;;;;;22.00;8.73;;;;;;;-141.50;100.00;63355.56;4895728;29;20061;-79
2021/12/27 04:47:31;;;;;;;22.50;9.02;;;;;;;-141.50;100.00;63355.56;4897751;29;20056;-79
2021/12/27 04:49:58;;;;;;;29.13;8.80;;;;;;;-141.50;100.00;63355.56;4897500;29;20468;-80
2021/12/27 04:52:24;;;;;;;22.75;8.73;;;;;;;-141.50;100.00;63355.56;4898782;29;20101;-79
2021/12/27 04:54:51;;;;;;;23.65;8.90;;;;;;;-141.50;100.00;63355.56;4898870;29;20605;-78
2021/12/27 04:57:18;;;;;;;21.02;8.45;;;;;;;-141.50;100.00;63355.56;4897524;29;20057;-80
2021/12/27 04:59:44;;;;;;;22.35;9.43;;;;;;;-141.50;100.00;63355.56;4897200;29;20129;-80
2021/12/27 05:02:11;;;;;;;20.95;8.95;;;;;;;-141.50;100.00;63355.56;4895145;29;20057;-79
2021/12/27 05:04:37;;;;;;;25.33;8.77;;;;;;;-141.50;100.00;63355.56;4898925;29;20426;-79
2021/12/27 05:07:04;;;;;;;22.88;9.02;;;;;;;-141.50;100.00;63355.56;4898904;29;20048;-80
2021/12/27 05:09:30;;;;;;;22.25;8.73;;;;;;;-141.50;100.00;63355.56;4897653;29;20049;-80
2021/12/27 05:11:57;;;;;;;20.42;8.75;;;;;;;-141.50;100.00;63355.56;4897243;29;20137;-78
2021/12/27 05:14:23;;;;;;;22.10;9.13;;;;;;;-141.50;100.00;63355.56;4896720;29;20085;-80
2021/12/27 05:16:50;;;;;;;21.08;8.55;;;;;;;-141.50;100.00;63355.56;4897055;29;20070;-79
2021/12/27 05:19:17;;;;;;;21.52;8.70;;;;;;;-141.50;100.00;63355.56;4895723;29;20394;-80
2021/12/27 05:21:43;;;;;;;19.38;8.20;;;;;;;-141.50;100.00;63355.56;4896039;29;20067;-79
2021/12/27 05:24:10;;;;;;;22.65;9.10;;;;;;;-141.50;100.00;63355.56;4896135;29;20052;-78
2021/12/27 05:26:36;;;;;;;22.08;8.93;;;;;;;-141.50;100.00;63355.56;4896779;29;20053;-77
2021/12/27 05:29:03;;;;;;;23.02;8.50;;;;;;;-141.50;100.00;63355.56;4895254;29;20072;-80
2021/12/27 05:31:30;;;;;;;19.38;8.43;;;;;;;-141.50;100.00;63355.56;4896731;29;20120;-80
2021/12/27 05:33:56;;;;;;;24.08;10.32;;;;;;;-141.50;100.00;63355.56;4896575;29;20120;-79
2021/12/27 05:36:23;;;;;;;23.40;9.18;;;;;;;-141.50;100.00;63355.56;4897711;29;20073;-79
2021/12/27 05:38:49;;;;;;;23.92;9.63;;;;;;;-141.50;100.00;63355.56;4896657;29;20080;-79
2021/12/27 05:41:16;;;;;;;26.40;9.98;;;;;;;-141.50;100.00;63355.56;4896831;29;20071;-80
2021/12/27 05:43:43;;;;;;;23.15;9.27;;;;;;;-141.50;100.00;63355.56;4894589;29;20056;-79
2021/12/27 05:46:09;;;;;;;24.70;9.82;;;;;;;-141.50;100.00;63355.56;4897024;29;20099;-78
2021/12/27 05:48:36;;;;;;;22.65;8.85;;;;;;;-141.50;100.00;63355.56;4895611;29;20088;-80
2021/12/27 05:51:03;;;;;;;22.15;9.45;;;;;;;-141.50;100.00;63355.56;4895334;29;20135;-79
2021/12/27 05:53:29;;;;;;;26.15;9.63;;;;;;;-141.50;100.00;63355.56;4879144;29;20049;-79
2021/12/27 05:55:56;;;;;;;24.77;10.13;;;;;;;-141.50;100.00;63355.56;4897159;29;20057;-78
2021/12/27 05:58:22;;;;;;;22.00;9.77;;;;;;;-141.50;100.00;63355.56;4877842;29;20084;-79
2021/12/27 06:00:49;;;;;;;22.70;9.20;;;;;;;-141.50;100.00;63355.56;4896477;29;20514;-80
2021/12/27 06:03:16;;;;;;;21.27;9.57;;;;;;;-141.50;100.00;63355.56;4895745;29;20061;-79
2021/12/27 06:05:42;;;;;;;27.65;10.70;;;;;;;-141.50;100.00;63355.56;4897533;29;20088;-78
2021/12/27 06:08:09;;;;;;;24.80;10.45;;;;;;;-141.50;100.00;63355.56;4895825;29;20144;-77
2021/12/27 06:10:36;;;;;;;21.90;10.02;;;;;;;-141.50;100.00;63355.56;4896825;29;20094;-79
2021/12/27 06:13:02;;;;;;;24.33;10.50;;;;;;;-141.50;100.00;63355.56;4883098;29;20477;-79
2021/12/27 06:15:29;;;;;;;22.20;10.55;;;;;;;-141.50;100.00;63355.56;4895732;29;20108;-79
2021/12/27 06:17:55;;;;;;;27.38;10.45;;;;;;;-141.50;100.00;63355.56;4896170;29;20117;-80
2021/12/27 06:20:22;;;;;;;26.45;10.95;;;;;;;-141.50;100.00;63355.56;4896263;29;20056;-79
2021/12/27 06:22:53;;;;;;;22.15;9.95;;;;;;;-141.50;100.00;63355.56;4896012;29;20120;-80
2021/12/27 06:25:19;;;;;;;27.20;11.10;;;;;;;-141.50;100.00;63355.56;4896352;29;20060;-79
2021/12/27 06:27:46;;;;;;;25.63;10.57;;;;;;;-141.50;100.00;63355.56;4879207;29;20072;-81
2021/12/27 06:30:14;;;;;;;28.20;10.55;;;;;;;-141.50;100.00;63355.56;4893573;29;20056;-80
2021/12/27 06:32:42;;;;;;;26.15;10.93;;;;;;;-141.50;100.00;63355.56;4892408;29;20077;-78
2021/12/27 06:35:11;;;;;;;25.15;10.80;;;;;;;-141.50;100.00;63355.56;4895550;29;20104;-80
2021/12/27 06:37:40;;;;;;;27.65;11.00;;;;;;;-141.50;100.00;63355.56;4895233;29;20052;-80
2021/12/27 06:40:08;;;;;;;29.38;11.40;;;;;;;-141.50;100.00;63355.56;4893905;29;20092;-81
2021/12/27 06:42:35;;;;;;;28.40;10.65;;;;;;;-141.50;100.00;63355.56;4894660;29;20107;-79
2021/12/27 06:45:02;;;;;;;31.73;11.15;;;;;;;-141.50;100.00;63355.56;4893015;29;20141;-80
2021/12/27 06:47:29;;;;;;;28.17;10.93;;;;;;;-141.50;100.00;63355.56;4885028;29;20269;-80
2021/12/27 06:49:56;;;;;;;27.85;11.57;;;;;;;-141.50;100.00;63355.56;4891694;29;20519;-81
2021/12/27 06:52:24;;;;;;;28.60;11.02;;;;;;;-141.50;100.00;63355.56;4893387;29;20143;-78
2021/12/27 06:54:51;;;;;;;26.38;11.20;;;;;;;-141.50;100.00;63355.56;4894034;29;20158;-80
2021/12/27 06:57:27;;;;;;;27.92;12.18;;;;;;;-141.50;100.00;63355.56;4894684;29;20064;-80
2021/12/27 06:59:54;;;;;;;29.73;12.63;;;;;;;-141.50;100.00;63355.56;4908734;29;20159;-79
2021/12/27 07:02:20;;;;;;;30.27;12.00;;;;;;;-141.50;100.00;63355.56;4908556;29;20087;-80
2021/12/27 07:04:47;;;;;;;28.95;12.75;;;;;;;-141.50;100.00;63355.56;4907327;29;20103;-80
2021/12/27 07:07:14;;;;;;;31.13;13.38;;;;;;;-141.50;100.00;63355.56;4890915;29;20131;-80
2021/12/27 07:09:40;;;;;;;28.25;12.45;;;;;;;-141.50;100.00;63355.56;4890139;29;20143;-80
2021/12/27 07:12:07;;;;;;;28.65;12.98;;;;;;;-141.50;100.00;63355.56;4889007;29;20053;-80
2021/12/27 07:14:34;;;;;;;38.72;13.90;;;;;;;-141.50;100.00;63355.56;4889830;29;20454;-79
2021/12/27 07:17:01;;;;;;;32.35;12.98;;;;;;;-141.50;100.00;63355.56;4889112;29;20052;-80
2021/12/27 07:19:28;;;;;;;32.15;13.75;;;;;;;-141.50;100.00;63355.56;4890632;29;20766;-80
2021/12/27 07:21:55;;;;;;;30.92;14.05;;;;;;;-141.50;100.00;63355.56;4890448;29;20060;-80
2021/12/27 07:24:22;;;;;;;39.80;13.90;;;;;;;-141.50;100.00;63355.56;4890780;29;20087;-79
2021/12/27 07:26:49;;;;;;;34.53;13.93;;;;;;;-141.50;100.00;63355.56;4896524;29;20454;-80
2021/12/27 07:29:15;;;;;;;33.55;13.20;;;;;;;-141.50;100.00;63355.56;4897592;29;20092;-77
2021/12/27 07:31:42;;;;;;;35.83;14.10;;;;;;;-141.50;100.00;63355.56;4886008;29;20129;-78
2021/12/27 07:34:10;;;;;;;30.05;13.80;;;;;;;-141.50;100.00;63355.56;4879749;29;20060;-77
2021/12/27 07:36:36;;;;;;;29.98;13.30;;;;;;;-141.50;100.00;63355.56;4904427;29;20146;-78
2021/12/27 07:39:04;;;;;;;31.92;13.55;;;;;;;-141.50;100.00;63355.56;4910324;29;20132;-78
2021/12/27 07:41:31;;;;;;;36.05;13.60;;;;;;;-141.50;100.00;63355.56;4892276;29;20048;-78
2021/12/27 07:43:57;;;;;;;35.53;14.07;;;;;;;-141.50;100.00;63355.56;4889945;29;20085;-76
2021/12/27 07:46:24;;;;;;;29.73;12.98;;;;;;;-141.50;100.00;63355.56;4882024;29;20079;-77
2021/12/27 07:48:52;;;;;;;34.72;13.07;;;;;;;-141.50;100.00;63355.56;4892601;29;20083;-76
2021/12/27 07:51:18;;;;;;;31.52;13.65;;;;;;;-141.50;100.00;63355.56;4876892;29;20052;-77
2021/12/27 07:53:45;;;;;;;29.65;12.75;;;;;;;-141.50;100.00;63355.56;4909360;29;20064;-80
2021/12/27 07:56:11;;;;;;;36.22;13.48;;;;;;;-141.50;100.00;63355.56;4912066;29;20060;-77
2021/12/27 07:58:38;;;;;;;29.98;13.15;;;;;;;-141.50;100.00;63355.56;4899184;29;20063;-78
2021/12/27 08:01:05;;;;;;;31.65;14.43;;;;;;;-141.50;100.00;63355.56;4928968;29;20067;-78
2021/12/27 08:03:31;;;;;;;31.63;13.18;;;;;;;-141.50;100.00;63355.56;4912819;29;20084;-79
2021/12/27 08:05:58;;;;;;;31.80;13.40;;;;;;;-141.50;100.00;63355.56;4917379;29;20075;-80
2021/12/27 08:08:25;;;;;;;31.90;14.18;;;;;;;-141.50;100.00;63355.56;4913419;29;20489;-78
2021/12/27 08:10:52;;;;;;;30.77;13.13;;;;;;;-141.50;100.00;63355.56;4912947;29;20055;-79
2021/12/27 08:13:18;;;;;;;26.98;11.88;;;;;;;-141.50;100.00;63355.56;4911167;29;20091;-77
2021/12/27 08:15:45;;;;;;;29.58;13.20;;;;;;;-141.50;100.00;63355.56;4911458;29;20143;-80
2021/12/27 08:18:11;;;;;;;28.20;12.63;;;;;;;-141.50;100.00;63355.56;4912289;29;20048;-80
2021/12/27 08:20:38;;;;;;;30.17;11.45;;;;;;;-141.50;100.00;63355.56;4910511;29;20142;-79
2021/12/27 08:23:04;;;;;;;35.05;12.52;;;;;;;-141.50;100.00;63355.56;4909748;29;20056;-77
2021/12/27 08:25:31;;;;;;;38.45;15.90;;;;;;;-141.50;100.00;63355.56;4908533;29;20091;-78
2021/12/27 08:27:58;;;;;;;28.02;12.02;;;;;;;-141.50;100.00;63355.56;4911256;29;20067;-80
2021/12/27 08:30:24;;;;;;;28.27;11.32;;;;;;;-141.50;100.00;63355.56;4892108;29;20087;-79
2021/12/27 08:32:52;;;;;;;24.50;10.52;;;;;;;-141.50;100.00;63355.56;4907332;29;20056;-76
2021/12/27 08:35:20;;;;;;;20.73;9.73;;;;;;;-141.50;100.00;63355.56;4873539;29;20092;-79
2021/12/27 08:37:47;;;;;;;28.02;9.82;;;;;;;-141.50;100.00;63355.56;4892502;29;20055;-80
2021/12/27 08:40:13;;;;;;;26.95;10.35;;;;;;;-141.50;100.00;63355.56;4884200;29;20066;-78
2021/12/27 08:43:00;;;;;;;31.63;14.00;;;;;;;2.08;100.00;96710.91;5104174;27;20384;-77
2021/12/27 08:45:27;;;;;;;32.65;13.40;;;;;;;2.08;100.00;96705.56;5102028;28;20101;-78
2021/12/27 08:47:56;;;;;;;26.63;11.18;;;;;;;1.88;100.00;96709.25;5118142;28;20051;-77
2021/12/27 08:50:22;;;;;;;20.63;10.32;;;;;;;2.15;100.00;96714.00;5105624;28;20059;-78
2021/12/27 08:52:50;;;;;;;25.98;10.82;;;;;;;2.15;100.00;96714.00;5105459;28;20622;-78
2021/12/27 08:55:16;;;;;;;30.67;11.63;;;;;;;2.28;100.00;96714.13;5105532;28;20086;-77
2021/12/27 08:57:43;;;;;;;19.73;9.65;;;;;;;2.32;100.00;96701.03;5103578;28;20052;-79
2021/12/27 09:00:12;;;;;;;20.50;9.05;;;;;;;2.23;100.00;96713.41;5103251;28;20083;-80
2021/12/27 09:02:39;;;;;;;19.02;9.10;;;;;;;2.43;100.00;96710.50;5105384;28;20263;-79
2021/12/27 09:05:06;;;;;;;22.08;8.75;;;;;;;2.56;100.00;96723.16;5105370;28;20115;-79
2021/12/27 09:07:33;;;;;;;21.77;9.43;;;;;;;3.31;100.00;96707.97;5105185;28;20056;-79
2021/12/27 09:10:00;;;;;;;20.65;8.38;;;;;;;3.52;100.00;96716.47;5103787;28;20083;-79
2021/12/27 09:12:27;;;;;;;25.60;8.40;;;;;;;3.67;100.00;96714.34;5103178;28;20062;-79
2021/12/27 09:14:53;;;;;;;19.10;8.25;;;;;;;3.38;100.00;96708.38;5100035;28;20120;-78
2021/12/27 09:17:20;;;;;;;19.33;8.18;;;;;;;2.99;100.00;96689.97;5101470;28;20571;-79
2021/12/27 09:19:47;;;;;;;18.63;7.95;;;;;;;2.74;100.00;96695.69;5102015;28;20075;-79
2021/12/27 09:22:15;;;;;;;18.85;7.85;;;;;;;2.70;100.00;96713.38;5100885;28;20143;-79
2021/12/27 09:24:42;;;;;;;24.35;8.93;;;;;;;2.62;100.00;96707.88;5101630;28;20112;-79
2021/12/27 09:27:08;;;;;;;23.10;8.43;;;;;;;2.87;100.00;96699.50;5101356;28;20492;-79
2021/12/27 09:29:35;;;;;;;21.23;9.00;;;;;;;2.78;100.00;96707.41;5100288;28;20606;-80
2021/12/27 09:32:02;;;;;;;19.55;7.75;;;;;;;2.76;100.00;96698.84;5102592;28;20105;-79
2021/12/27 09:34:29;;;;;;;17.67;8.38;;;;;;;2.79;100.00;96692.94;5102057;28;20052;-79
2021/12/27 09:36:56;;;;;;;18.58;8.18;;;;;;;2.80;100.00;96693.72;5102717;28;20136;-80
2021/12/27 09:39:22;;;;;;;17.38;7.32;;;;;;;2.92;100.00;96699.44;5102478;28;20525;-80
2021/12/27 09:41:49;;;;;;;19.73;8.52;;;;;;;2.99;100.00;96694.53;5101111;28;20049;-79
2021/12/27 09:44:15;;;;;;;16.70;7.47;;;;;;;3.17;100.00;96698.28;5101735;28;20052;-79
2021/12/27 09:46:44;;;;;;;19.80;7.75;;;;;;;3.05;100.00;96696.84;5102304;28;20059;-80
2021/12/27 09:49:14;;;;;;;20.02;7.50;;;;;;;2.99;100.00;96700.66;5102095;28;20143;-79
2021/12/27 09:51:42;;;;;;;19.40;7.57;;;;;;;2.89;100.00;96681.34;5103443;28;20048;-79
2021/12/27 09:54:09;;;;;;;17.58;7.28;;;;;;;2.91;100.00;96685.31;5088594;28;20076;-80
2021/12/27 09:56:36;;;;;;;17.20;7.70;;;;;;;2.70;100.00;96672.50;5089520;28;20180;-78
2021/12/27 09:59:04;;;;;;;22.20;7.55;;;;;;;2.80;100.00;96675.81;5086336;28;20066;-80
2021/12/27 10:01:30;;;;;;;16.60;7.63;;;;;;;2.71;100.00;96674.88;5089564;28;20052;-80
2021/12/27 10:04:00;;;;;;;16.73;8.10;;;;;;;2.66;100.00;96679.50;5090029;28;20066;-80
2021/12/27 10:06:28;;;;;;;17.45;7.68;;;;;;;2.77;100.00;96663.03;5089916;28;20075;-79
2021/12/27 10:08:57;;;;;;;15.05;7.13;;;;;;;2.82;100.00;96670.19;5088781;28;20054;-79
2021/12/27 10:11:31;;;;;;;15.20;7.30;;;;;;;2.72;100.00;96651.63;5093465;28;20094;-79
2021/12/27 10:14:03;;;;;;;15.40;7.60;;;;;;;2.77;100.00;96672.94;5089412;28;20273;-80
2021/12/27 10:16:32;;;;;;;15.55;6.68;;;;;;;2.71;100.00;96664.19;5090003;28;20469;-80
2021/12/27 10:19:02;;;;;;;14.18;7.22;;;;;;;2.78;100.00;96661.16;5088430;28;20086;-80
2021/12/27 10:21:29;;;;;;;14.80;6.72;;;;;;;2.66;100.00;96653.56;5090045;28;20101;-80
2021/12/27 10:24:08;;;;;;;14.20;6.88;;;;;;;2.72;100.00;96654.28;5088507;28;20579;-80
2021/12/27 10:26:36;;;;;;;16.15;7.43;;;;;;;2.87;100.00;96651.41;5091567;28;20363;-79
2021/12/27 10:29:11;;;;;;;14.55;7.07;;;;;;;2.78;100.00;96645.13;5087775;28;20060;-79
2021/12/27 10:31:52;;;;;;;14.70;7.55;;;;;;;2.71;100.00;96658.84;5090127;28;20483;-78
2021/12/27 10:34:19;;;;;;;17.42;7.90;;;;;;;2.83;100.00;96642.38;5091544;28;20051;-80
2021/12/27 10:37:01;;;;;;;15.95;7.32;;;;;;;2.88;100.00;96656.47;5090372;28;20565;-80
2021/12/27 10:39:58;;;;;;;15.70;6.80;;;;;;;2.94;100.00;96641.16;5091205;28;20106;-80
2021/12/27 10:42:37;;;;;;;14.63;7.05;;;;;;;3.03;100.00;96650.09;5091202;28;20052;-80
2021/12/27 10:45:19;;;;;;;17.42;7.05;;;;;;;3.06;100.00;96649.53;5090965;28;20056;-79
2021/12/27 10:47:52;;;;;;;16.73;7.57;;;;;;;2.91;100.00;96639.06;5091634;28;20076;-81
2021/12/27 10:50:33;;;;;;;15.40;7.03;;;;;;;3.01;100.00;96641.59;5091044;28;20450;-80
2021/12/27 10:53:03;;;;;;;15.93;6.28;;;;;;;3.10;100.00;96629.13;5090933;28;20047;-78
2021/12/27 10:55:46;;;;;;;18.63;7.18;;;;;;;3.27;100.00;96634.75;5093055;28;20478;-80
2021/12/27 10:58:27;;;;;;;18.55;6.65;;;;;;;3.74;100.00;96636.34;5090068;28;20067;-79
2021/12/27 11:01:00;;;;;;;14.63;6.53;;;;;;;4.14;100.00;96640.94;5091658;28;20048;-81
2021/12/27 11:03:52;;;;;;;16.75;6.75;;;;;;;4.67;100.00;96643.09;5093370;28;20043;-80
2021/12/27 11:06:21;;;;;;;11.82;6.15;;;;;;;4.73;100.00;96633.81;5087709;28;20064;-80
2021/12/27 11:08:48;;;;;;;12.82;5.90;;;;;;;4.87;100.00;96621.97;5091820;28;20138;-80
2021/12/27 11:11:16;;;;;;;13.20;6.07;;;;;;;4.79;100.00;96616.53;5090700;28;20397;-80
2021/12/27 11:13:44;;;;;;;16.80;6.53;;;;;;;4.51;100.00;96613.13;5087750;28;20117;-80
2021/12/27 11:16:10;;;;;;;18.25;7.05;;;;;;;4.33;100.00;96620.22;5088431;28;20173;-80